Time;durP1;ratioP1;P1;durP2;ratioP2;P2;SDS_P1;SDS_P2;PMS_P1;PMS_P2;Temp;Humidity;BMP_temperature;BMP_pressure;BME280_temperature;BME280_humidity;BME280_pressure;Samples;Min_cycle;Max_cycle;Signal;HPM_P1;HPM_P2
2022/08/19 00:02:11;;;;;;;7.28;4.72;;;;;;;23.81;nan;-24477.59;4953635;28;20174;-59
2022/08/19 00:04:37;;;;;;;6.93;4.85;;;;;;;23.54;nan;-24470.41;4953117;29;20260;-59
2022/08/19 00:07:05;;;;;;;7.43;4.70;;;;;;;24.03;nan;-24483.81;4954995;28;20178;-60
2022/08/19 00:09:30;;;;;;;9.00;5.20;;;;;;;24.13;nan;-24486.44;4956884;29;20185;-60
2022/08/19 00:11:57;;;;;;;9.32;4.75;;;;;;;24.06;nan;-24484.50;4956782;29;20174;-60
2022/08/19 00:14:24;;;;;;;7.43;4.65;;;;;;;24.07;nan;-24484.78;4956765;29;20229;-60
2022/08/19 00:16:53;;;;;;;6.43;4.25;;;;;;;23.47;nan;-24468.34;4956807;29;20233;-59
2022/08/19 00:19:19;;;;;;;9.23;5.47;;;;;;;23.82;nan;-24477.88;4956245;29;20579;-59
2022/08/19 00:21:45;;;;;;;7.45;4.65;;;;;;;23.82;nan;-24477.88;4956504;29;20182;-59
2022/08/19 00:24:13;;;;;;;6.72;4.82;;;;;;;23.65;nan;-24473.47;4956807;29;20642;-59
2022/08/19 00:26:39;;;;;;;7.70;4.70;;;;;;;23.58;nan;-24471.38;4956368;29;20185;-59
2022/08/19 00:29:07;;;;;;;7.18;4.50;;;;;;;23.36;nan;-24465.44;4955825;29;20661;-59
2022/08/19 00:31:33;;;;;;;7.00;4.70;;;;;;;23.34;nan;-24465.03;4956340;29;20189;-59
2022/08/19 00:33:58;;;;;;;6.82;4.72;;;;;;;23.27;nan;-24462.97;4956626;29;20182;-59
2022/08/19 00:36:24;;;;;;;8.68;4.30;;;;;;;23.72;nan;-24475.25;4955866;29;20178;-59
2022/08/19 00:38:51;;;;;;;7.40;4.63;;;;;;;23.85;nan;-24478.84;4955801;29;20197;-59
2022/08/19 00:41:20;;;;;;;7.47;4.85;;;;;;;23.45;nan;-24467.78;4956439;29;20556;-59
2022/08/19 00:44:09;;;;;;;6.43;4.35;;;;;;;23.74;nan;-24475.94;4955884;29;20642;-59
2022/08/19 00:46:37;;;;;;;7.20;4.18;;;;;;;23.37;nan;-24465.72;4956776;29;20174;-59
2022/08/19 00:49:17;;;;;;;7.40;4.47;;;;;;;23.70;nan;-24474.84;4955708;29;20253;-59
2022/08/19 00:51:46;;;;;;;7.40;4.43;;;;;;;23.40;nan;-24466.56;4955470;29;20182;-60
2022/08/19 00:54:12;;;;;;;7.35;5.00;;;;;;;23.46;nan;-24468.06;4955119;29;20626;-60
2022/08/19 00:56:38;;;;;;;7.60;4.70;;;;;;;23.71;nan;-24475.13;4955511;29;20228;-60
2022/08/19 00:59:08;;;;;;;6.43;4.43;;;;;;;23.45;nan;-24467.94;4955639;29;20210;-60
2022/08/19 01:01:36;;;;;;;7.72;4.68;;;;;;;23.73;nan;-24475.66;4955027;29;20170;-59
2022/08/19 01:04:01;;;;;;;6.65;4.95;;;;;;;23.62;nan;-24472.63;4955643;29;20174;-59
2022/08/19 01:06:27;;;;;;;6.53;4.45;;;;;;;23.53;nan;-24470.16;4955385;29;20622;-60
2022/08/19 01:08:54;;;;;;;9.73;4.97;;;;;;;23.33;nan;-24464.63;4955178;29;20178;-59
2022/08/19 01:11:20;;;;;;;8.25;4.95;;;;;;;23.65;nan;-24473.31;4955165;28;20182;-60
2022/08/19 01:13:46;;;;;;;7.75;5.32;;;;;;;23.67;nan;-24474.00;4955093;29;20170;-60
2022/08/19 01:16:12;;;;;;;7.28;4.65;;;;;;;23.63;nan;-24472.78;4955036;29;20236;-59
2022/08/19 01:18:41;;;;;;;8.02;4.93;;;;;;;22.99;nan;-24455.22;4954594;28;20177;-59
2022/08/19 01:21:18;;;;;;;7.25;4.97;;;;;;;23.16;nan;-24459.94;4954228;29;20676;-60
2022/08/19 01:23:44;;;;;;;7.72;5.03;;;;;;;23.55;nan;-24470.56;4955136;29;20549;-59
2022/08/19 01:26:14;;;;;;;7.90;4.70;;;;;;;23.17;nan;-24460.34;4955735;29;20182;-59
2022/08/19 01:28:41;;;;;;;8.00;5.35;;;;;;;23.05;nan;-24457.03;4954993;29;20653;-59
2022/08/19 01:31:19;;;;;;;9.48;4.75;;;;;;;23.27;nan;-24462.97;4955564;28;20518;-60
2022/08/19 01:33:46;;;;;;;7.93;4.85;;;;;;;23.15;nan;-24459.78;4955422;29;20285;-60
2022/08/19 01:36:22;;;;;;;8.80;4.35;;;;;;;23.36;nan;-24465.44;4955730;29;20618;-59
2022/08/19 01:38:49;;;;;;;8.70;5.53;;;;;;;22.55;nan;-24443.19;4954867;29;20166;-60
2022/08/19 01:41:16;;;;;;;8.48;5.05;;;;;;;23.16;nan;-24459.94;4955292;28;20182;-60
2022/08/19 01:43:42;;;;;;;7.43;4.43;;;;;;;23.06;nan;-24457.31;4955187;29;20175;-59
2022/08/19 01:46:07;;;;;;;7.45;5.05;;;;;;;23.17;nan;-24460.34;4954868;29;20189;-60
2022/08/19 01:48:39;;;;;;;8.50;4.85;;;;;;;23.26;nan;-24462.81;4954922;29;20174;-60
2022/08/19 01:51:05;;;;;;;7.13;4.57;;;;;;;23.28;nan;-24463.25;4955128;29;20253;-59
2022/08/19 01:53:31;;;;;;;7.57;4.88;;;;;;;23.08;nan;-24457.72;4954851;29;20637;-60
2022/08/19 01:55:57;;;;;;;8.43;4.80;;;;;;;23.20;nan;-24461.03;4954998;29;20277;-60
2022/08/19 01:58:30;;;;;;;7.63;4.93;;;;;;;22.74;nan;-24448.44;4954635;29;20658;-60
2022/08/19 02:00:56;;;;;;;8.55;5.60;;;;;;;23.06;nan;-24457.16;4954992;29;20229;-61
2022/08/19 02:03:22;;;;;;;9.32;5.15;;;;;;;22.56;nan;-24443.59;4954806;29;20651;-59
2022/08/19 02:05:54;;;;;;;7.65;5.20;;;;;;;22.77;nan;-24449.28;4954739;29;20170;-59
2022/08/19 02:08:20;;;;;;;11.02;5.63;;;;;;;23.03;nan;-24456.47;4954489;29;20593;-60
2022/08/19 02:10:45;;;;;;;10.43;5.65;;;;;;;22.59;nan;-24444.44;4955004;29;20660;-60
2022/08/19 02:13:12;;;;;;;8.05;4.93;;;;;;;22.45;nan;-24440.69;4954615;29;20162;-59
2022/08/19 02:15:37;;;;;;;7.63;4.85;;;;;;;22.70;nan;-24447.50;4954572;29;20646;-60
2022/08/19 02:18:03;;;;;;;9.88;5.40;;;;;;;22.70;nan;-24447.50;4954356;29;20269;-60
2022/08/19 02:20:28;;;;;;;8.02;5.32;;;;;;;22.28;nan;-24435.88;4954136;29;20732;-59
2022/08/19 02:22:54;;;;;;;8.27;5.47;;;;;;;22.39;nan;-24438.91;4954080;29;20597;-59
2022/08/19 02:25:19;;;;;;;8.98;5.93;;;;;;;22.66;nan;-24446.25;4954693;29;20174;-59
2022/08/19 02:27:45;;;;;;;8.63;5.05;;;;;;;22.83;nan;-24450.94;4954392;29;20204;-60
2022/08/19 02:30:15;;;;;;;10.80;6.15;;;;;;;22.34;nan;-24437.66;4953770;28;20269;-60
2022/08/19 02:32:41;;;;;;;9.68;5.38;;;;;;;22.17;nan;-24432.97;4954532;29;20226;-60
2022/08/19 02:35:07;;;;;;;9.70;5.75;;;;;;;22.43;nan;-24440.16;4954109;28;20189;-60
2022/08/19 02:40:17;;;;;;;7.95;5.30;;;;;;;22.42;nan;-24439.75;4954210;29;20276;-60
2022/08/19 02:42:44;;;;;;;9.25;5.10;;;;;;;22.26;nan;-24435.44;4954819;29;20174;-60
2022/08/19 02:45:10;;;;;;;9.85;5.20;;;;;;;22.56;nan;-24443.59;4953843;29;20642;-60
2022/08/19 02:47:36;;;;;;;8.70;4.95;;;;;;;22.37;nan;-24438.34;4953903;29;20201;-59
2022/08/19 02:50:04;;;;;;;9.85;5.53;;;;;;;22.58;nan;-24444.03;4953482;29;20665;-60
2022/08/19 02:52:29;;;;;;;9.52;4.82;;;;;;;22.65;nan;-24445.97;4954074;29;20185;-60
2022/08/19 02:54:57;;;;;;;8.30;5.38;;;;;;;22.57;nan;-24443.88;4954071;29;20293;-59
2022/08/19 02:57:23;;;;;;;7.90;5.05;;;;;;;22.55;nan;-24443.34;4953959;29;20174;-60
2022/08/19 02:59:49;;;;;;;8.88;5.38;;;;;;;22.55;nan;-24443.34;4953944;29;20693;-60
2022/08/19 03:02:15;;;;;;;8.38;5.00;;;;;;;22.53;nan;-24442.63;4953757;29;20224;-60
2022/08/19 03:04:41;;;;;;;9.15;5.63;;;;;;;22.45;nan;-24440.56;4953726;29;20174;-62
2022/08/19 03:07:08;;;;;;;10.63;5.50;;;;;;;22.42;nan;-24439.75;4954070;29;20550;-60
2022/08/19 03:09:36;;;;;;;11.50;5.70;;;;;;;22.16;nan;-24432.53;4954361;29;20276;-60
2022/08/19 03:12:03;;;;;;;8.55;5.22;;;;;;;22.41;nan;-24439.47;4954107;29;20360;-60
2022/08/19 03:14:31;;;;;;;8.45;5.15;;;;;;;22.46;nan;-24440.84;4953716;29;20261;-60
2022/08/19 03:16:57;;;;;;;10.55;5.43;;;;;;;22.10;nan;-24430.88;4953727;29;20333;-60
2022/08/19 03:19:23;;;;;;;7.25;4.93;;;;;;;22.19;nan;-24433.38;4953665;29;20201;-60
2022/08/19 03:21:51;;;;;;;11.32;6.07;;;;;;;22.36;nan;-24438.06;4947776;29;20202;-60
2022/08/19 03:24:18;;;;;;;9.82;6.20;;;;;;;22.34;nan;-24437.53;4946480;29;20236;-60
2022/08/19 03:26:47;;;;;;;8.13;4.85;;;;;;;22.11;nan;-24431.16;4946945;29;20257;-61
2022/08/19 03:29:14;;;;;;;9.93;5.93;;;;;;;22.42;nan;-24439.75;4947300;29;20178;-60
2022/08/19 03:31:40;;;;;;;9.25;5.68;;;;;;;22.32;nan;-24436.97;4948387;29;21921;-60
2022/08/19 03:34:06;;;;;;;8.48;5.45;;;;;;;21.93;nan;-24426.44;4947354;29;20186;-61
2022/08/19 03:36:32;;;;;;;9.98;5.75;;;;;;;22.17;nan;-24432.97;4947705;28;20241;-60
2022/08/19 03:39:00;;;;;;;12.82;6.00;;;;;;;21.88;nan;-24424.91;4947283;29;20186;-59
2022/08/19 03:41:47;;;;;;;10.10;5.85;;;;;;;22.17;nan;-24432.97;4931229;29;20617;-60
2022/08/19 03:44:21;;;;;;;10.23;5.38;;;;;;;21.97;nan;-24427.56;4950300;29;20226;-60
2022/08/19 03:46:53;;;;;;;10.40;6.30;;;;;;;22.20;nan;-24433.66;4950833;28;20209;-60
2022/08/19 03:49:20;;;;;;;10.40;5.53;;;;;;;22.51;nan;-24442.09;4953287;28;20600;-60
2022/08/19 03:51:48;;;;;;;13.13;6.22;;;;;;;22.73;nan;-24448.19;4953566;28;20180;-60
2022/08/19 03:54:15;;;;;;;8.85;5.40;;;;;;;22.95;nan;-24454.13;4953273;28;20680;-60
2022/08/19 03:56:43;;;;;;;9.93;6.45;;;;;;;23.23;nan;-24461.84;4952013;28;20571;-60
2022/08/19 03:59:24;;;;;;;12.02;6.07;;;;;;;24.05;nan;-24484.34;4952312;28;20237;-59
2022/08/19 04:01:50;;;;;;;11.20;6.03;;;;;;;24.47;nan;-24495.81;4952172;28;20610;-60
2022/08/19 04:04:16;;;;;;;9.32;5.82;;;;;;;24.89;nan;-24507.09;4953296;28;20296;-61
2022/08/19 04:06:43;;;;;;;12.10;6.22;;;;;;;25.10;nan;-24512.88;4950040;29;20650;-63
2022/08/19 04:09:10;;;;;;;10.65;5.57;;;;;;;25.71;nan;-24529.41;4950126;29;20178;-60
2022/08/19 04:11:41;;;;;;;10.15;6.47;;;;;;;26.04;nan;-24538.34;4950363;29;20189;-60
2022/08/19 04:14:08;;;;;;;8.63;5.05;;;;;;;26.53;nan;-24551.81;4949979;29;20197;-61
2022/08/19 04:16:34;;;;;;;9.88;5.57;;;;;;;26.86;nan;-24560.72;4949451;29;20234;-62
2022/08/19 04:19:01;;;;;;;8.68;5.07;;;;;;;27.33;nan;-24573.34;4952811;29;20198;-59
2022/08/19 04:21:28;;;;;;;8.98;5.35;;;;;;;26.63;nan;-24554.41;4954445;28;20672;-60
2022/08/19 04:23:55;;;;;;;8.68;5.28;;;;;;;26.09;nan;-24539.72;4955949;28;20193;-59
2022/08/19 04:26:24;;;;;;;7.80;5.03;;;;;;;26.45;nan;-24549.47;4954679;29;20201;-60
2022/08/19 04:28:51;;;;;;;8.90;5.22;;;;;;;26.64;nan;-24554.81;4955785;28;20265;-60
2022/08/19 04:31:20;;;;;;;10.35;5.43;;;;;;;26.57;nan;-24552.75;4966082;28;20190;-60
2022/08/19 04:33:45;;;;;;;7.15;4.65;;;;;;;26.54;nan;-24551.94;4963488;28;20178;-60
2022/08/19 04:36:21;;;;;;;9.02;4.80;;;;;;;26.55;nan;-24552.22;4955739;29;20189;-60
2022/08/19 04:38:53;;;;;;;8.32;5.00;;;;;;;26.94;nan;-24562.91;4955593;29;20169;-60
2022/08/19 04:44:02;;;;;;;8.88;5.40;;;;;;;27.17;nan;-24569.22;4955785;29;20169;-60
2022/08/19 04:46:30;;;;;;;7.95;5.28;;;;;;;27.10;nan;-24567.16;4954791;29;20557;-61
2022/08/19 04:48:56;;;;;;;9.15;5.25;;;;;;;26.41;nan;-24548.50;4956689;29;20550;-79
2022/08/19 04:51:22;;;;;;;8.32;5.63;;;;;;;25.42;nan;-24521.56;4939652;29;20194;-79
2022/08/19 04:53:48;;;;;;;8.25;5.40;;;;;;;25.08;nan;-24512.47;4939206;29;20725;-79
2022/08/19 04:56:17;;;;;;;7.93;5.05;;;;;;;25.16;nan;-24514.41;4956442;29;20193;-79
2022/08/19 04:58:44;;;;;;;7.78;5.10;;;;;;;25.46;nan;-24522.78;4956903;29;20183;-79
2022/08/19 05:01:13;;;;;;;8.40;5.38;;;;;;;25.94;nan;-24535.72;4956576;29;20216;-79
2022/08/19 05:03:39;;;;;;;7.80;5.35;;;;;;;25.86;nan;-24533.53;4957321;29;20178;-79
2022/08/19 05:06:10;;;;;;;8.57;5.05;;;;;;;25.72;nan;-24529.81;4957973;29;20216;-79
2022/08/19 05:08:37;;;;;;;7.90;5.10;;;;;;;25.36;nan;-24519.91;4955974;29;20174;-80
2022/08/19 05:11:10;;;;;;;9.13;5.22;;;;;;;24.80;nan;-24504.75;4972454;28;20604;-79
2022/08/19 05:13:36;;;;;;;8.75;4.93;;;;;;;25.35;nan;-24519.78;4957674;29;20179;-78
2022/08/19 05:16:03;;;;;;;7.93;5.20;;;;;;;25.22;nan;-24516.06;4957510;28;20297;-79
2022/08/19 05:24:00;;;;;;;7.88;4.68;;;;;;;25.72;nan;-24529.69;4958815;29;20177;-79
2022/08/19 05:26:25;;;;;;;8.43;4.93;;;;;;;25.85;nan;-24533.38;4958463;29;20175;-78
2022/08/19 05:28:55;;;;;;;8.43;5.13;;;;;;;25.95;nan;-24536.00;4945936;29;20170;-79
2022/08/19 05:31:21;;;;;;;7.38;5.32;;;;;;;26.06;nan;-24538.88;4940441;29;20186;-79
2022/08/19 05:33:47;;;;;;;8.48;4.68;;;;;;;26.01;nan;-24537.50;4960013;29;20174;-80
2022/08/19 05:36:13;;;;;;;10.10;4.55;;;;;;;26.05;nan;-24538.75;4959871;29;20208;-78
2022/08/19 05:38:39;;;;;;;7.85;5.20;;;;;;;26.17;nan;-24541.91;4960459;29;20155;-78
2022/08/19 05:41:09;;;;;;;8.90;5.22;;;;;;;26.16;nan;-24541.63;4961568;29;20281;-78
2022/08/19 05:43:34;;;;;;;7.45;5.22;;;;;;;26.24;nan;-24543.97;4966100;29;20258;-78
2022/08/19 05:46:00;;;;;;;7.78;4.93;;;;;;;26.30;nan;-24545.63;4958039;29;20230;-77
2022/08/19 05:48:26;;;;;;;7.22;4.53;;;;;;;26.49;nan;-24550.69;4962774;29;20174;-78
2022/08/19 05:50:51;;;;;;;8.13;5.22;;;;;;;26.16;nan;-24541.63;4941328;29;20174;-79
2022/08/19 05:53:18;;;;;;;11.45;5.57;;;;;;;26.65;nan;-24554.97;4958539;29;20180;-79
2022/08/19 05:55:43;;;;;;;8.95;5.15;;;;;;;26.58;nan;-24553.03;4941695;29;20186;-79
2022/08/19 05:58:08;;;;;;;7.68;5.00;;;;;;;26.84;nan;-24560.16;4973762;28;20721;-78
2022/08/19 06:00:35;;;;;;;10.35;5.32;;;;;;;27.12;nan;-24567.84;4942912;29;20260;-77
2022/08/19 06:03:03;;;;;;;10.88;5.00;;;;;;;26.91;nan;-24561.97;4961011;29;20229;-78
2022/08/19 06:05:30;;;;;;;10.93;5.13;;;;;;;26.90;nan;-24561.81;4975992;28;20217;-77
2022/08/19 06:07:56;;;;;;;9.23;4.97;;;;;;;27.27;nan;-24571.84;4961439;28;20178;-78
2022/08/19 06:10:22;;;;;;;7.47;5.07;;;;;;;27.21;nan;-24570.19;4961487;29;20283;-80
2022/08/19 06:12:48;;;;;;;8.32;5.10;;;;;;;27.83;nan;-24586.91;4944766;29;20178;-79
2022/08/19 06:15:14;;;;;;;8.10;4.60;;;;;;;27.59;nan;-24580.59;4943067;28;20233;-80
2022/08/19 06:17:41;;;;;;;7.40;5.07;;;;;;;27.60;nan;-24580.88;4942948;29;20170;-78
2022/08/19 06:20:11;;;;;;;8.90;5.03;;;;;;;27.96;nan;-24590.59;4944045;29;20210;-79
2022/08/19 06:22:49;;;;;;;7.03;4.60;;;;;;;28.19;nan;-24596.63;4976819;28;20178;-79
2022/08/19 06:25:15;;;;;;;6.82;4.80;;;;;;;27.71;nan;-24583.75;4945600;29;20178;-76
2022/08/19 06:27:42;;;;;;;7.00;4.55;;;;;;;28.25;nan;-24598.41;4947672;29;20193;-79
2022/08/19 06:30:08;;;;;;;7.32;5.13;;;;;;;28.15;nan;-24595.53;4965234;29;20265;-78
2022/08/19 06:32:35;;;;;;;6.47;4.53;;;;;;;27.50;nan;-24578.00;4962672;29;20788;-79
2022/08/19 06:35:00;;;;;;;7.68;4.90;;;;;;;27.86;nan;-24587.88;4942896;29;20186;-78
2022/08/19 06:37:25;;;;;;;7.20;4.43;;;;;;;28.16;nan;-24595.81;4960962;29;20163;-79
2022/08/19 06:39:51;;;;;;;7.50;4.90;;;;;;;27.90;nan;-24588.97;4961759;29;20210;-79
2022/08/19 06:42:18;;;;;;;8.80;4.90;;;;;;;28.21;nan;-24597.31;4941455;29;20241;-79
2022/08/19 06:44:46;;;;;;;8.10;5.10;;;;;;;28.41;nan;-24602.78;4960740;29;20169;-79
2022/08/19 06:47:15;;;;;;;7.85;5.15;;;;;;;28.70;nan;-24610.59;4960795;29;20254;-79
2022/08/19 06:49:42;;;;;;;7.00;4.68;;;;;;;28.63;nan;-24608.53;4961618;29;20184;-79
2022/08/19 06:52:08;;;;;;;7.55;4.55;;;;;;;29.17;nan;-24623.16;4944005;29;20238;-78
2022/08/19 06:54:33;;;;;;;8.13;4.75;;;;;;;28.93;nan;-24616.88;4961860;29;20359;-78
2022/08/19 06:57:03;;;;;;;8.60;4.85;;;;;;;28.93;nan;-24616.88;4963605;29;20524;-79
2022/08/19 06:59:32;;;;;;;7.43;4.75;;;;;;;28.75;nan;-24611.81;4977963;28;20209;-79
2022/08/19 07:02:00;;;;;;;7.85;4.97;;;;;;;29.37;nan;-24628.63;4963053;29;20189;-78
2022/08/19 07:04:30;;;;;;;6.35;4.57;;;;;;;29.27;nan;-24625.88;4945105;29;20193;-77
2022/08/19 07:07:09;;;;;;;7.47;4.55;;;;;;;29.52;nan;-24632.59;4962203;29;20242;-77
2022/08/19 07:09:37;;;;;;;7.40;4.80;;;;;;;29.35;nan;-24628.06;4961851;29;20185;-78
2022/08/19 07:12:06;;;;;;;9.32;5.63;;;;;;;29.44;nan;-24630.53;4959561;29;20550;-76
2022/08/19 07:14:35;;;;;;;6.47;4.70;;;;;;;29.44;nan;-24630.53;4942646;29;20190;-78
2022/08/19 07:17:00;;;;;;;7.72;4.47;;;;;;;29.69;nan;-24637.34;4961773;28;20241;-77
2022/08/19 07:19:27;;;;;;;7.18;4.28;;;;;;;29.69;nan;-24637.22;4946575;29;20198;-80
2022/08/19 07:21:53;;;;;;;6.05;4.20;;;;;;;29.96;nan;-24644.47;4962041;29;20182;-77
2022/08/19 07:24:23;;;;;;;7.32;4.50;;;;;;;29.87;nan;-24642.13;4963699;29;20173;-77
2022/08/19 07:26:48;;;;;;;6.18;4.05;;;;;;;30.02;nan;-24646.09;4964066;29;20181;-78
2022/08/19 07:29:13;;;;;;;6.50;4.28;;;;;;;30.01;nan;-24645.94;4966125;29;20200;-78
2022/08/19 07:31:39;;;;;;;7.63;4.43;;;;;;;30.32;nan;-24654.28;4965037;29;20205;-79
2022/08/19 07:34:07;;;;;;;7.43;4.80;;;;;;;30.32;nan;-24654.28;4961966;29;20542;-79
2022/08/19 07:36:35;;;;;;;7.32;4.32;;;;;;;30.42;nan;-24657.00;4944272;29;20268;-79
2022/08/19 07:39:05;;;;;;;5.45;3.80;;;;;;;30.79;nan;-24666.94;4961513;28;20221;-78
2022/08/19 07:41:31;;;;;;;5.70;4.07;;;;;;;30.94;nan;-24670.88;4977552;28;20188;-78
2022/08/19 07:44:03;;;;;;;5.45;3.90;;;;;;;30.90;nan;-24669.78;4946922;29;20641;-79
2022/08/19 07:46:30;;;;;;;6.22;4.20;;;;;;;31.00;nan;-24672.66;4962989;29;20178;-79
2022/08/19 07:48:56;;;;;;;6.03;4.30;;;;;;;31.11;nan;-24675.53;4962876;28;20172;-79
2022/08/19 07:51:22;;;;;;;5.75;4.15;;;;;;;30.92;nan;-24670.47;4963063;29;20618;-78
2022/08/19 07:53:50;;;;;;;8.15;4.57;;;;;;;30.82;nan;-24667.75;4944357;29;20181;-79
2022/08/19 07:56:17;;;;;;;6.75;4.53;;;;;;;30.86;nan;-24668.84;4961346;29;20204;-79
2022/08/19 07:58:45;;;;;;;5.70;4.13;;;;;;;30.98;nan;-24672.09;4963063;28;20197;-78
2022/08/19 08:01:13;;;;;;;7.13;4.78;;;;;;;30.93;nan;-24670.75;4963307;29;20284;-78
2022/08/19 08:09:11;;;;;;;5.97;4.60;;;;;;;31.16;nan;-24676.75;4965614;29;20197;-77
2022/08/19 08:11:38;;;;;;;7.20;4.65;;;;;;;31.25;nan;-24679.19;4967865;28;20186;-78
2022/08/19 08:14:04;;;;;;;6.57;4.75;;;;;;;31.24;nan;-24678.91;4961503;28;20205;-77
2022/08/19 08:16:34;;;;;;;6.07;4.20;;;;;;;31.54;nan;-24687.22;4960061;28;20730;-79
2022/08/19 08:19:00;;;;;;;7.50;4.78;;;;;;;31.63;nan;-24689.53;4959935;29;20162;-78
2022/08/19 08:21:25;;;;;;;6.43;4.13;;;;;;;31.73;nan;-24692.09;4960448;29;20201;-79
2022/08/19 08:23:55;;;;;;;7.55;4.47;;;;;;;31.72;nan;-24691.97;4961436;29;20236;-79
2022/08/19 08:26:20;;;;;;;8.05;5.15;;;;;;;32.16;nan;-24703.78;4961732;28;20549;-80
2022/08/19 08:28:47;;;;;;;8.30;4.65;;;;;;;32.14;nan;-24703.13;4959163;29;20281;-79
2022/08/19 08:31:12;;;;;;;6.65;4.50;;;;;;;32.25;nan;-24706.22;4960755;28;20169;-79
2022/08/19 08:33:38;;;;;;;6.53;4.72;;;;;;;32.37;nan;-24709.50;4962950;28;20206;-79
2022/08/19 08:36:08;;;;;;;8.10;4.82;;;;;;;32.23;nan;-24705.69;4961175;29;20648;-77
2022/08/19 08:38:34;;;;;;;6.65;4.57;;;;;;;32.28;nan;-24706.91;4964517;28;20212;-79
2022/08/19 08:41:34;;;;;;;7.45;4.60;;;;;;;32.61;nan;-24715.72;4961110;28;20201;-78
2022/08/19 08:44:03;;;;;;;7.18;4.90;;;;;;;32.82;nan;-24721.56;4956979;28;20185;-78
2022/08/19 08:46:41;;;;;;;6.70;4.90;;;;;;;32.56;nan;-24714.38;4961912;29;20181;-77
2022/08/19 08:49:20;;;;;;;7.40;5.00;;;;;;;32.63;nan;-24716.28;4964859;28;20177;-79
2022/08/19 08:52:00;;;;;;;6.47;4.63;;;;;;;32.99;nan;-24726.03;4961215;28;20185;-78
2022/08/19 08:54:33;;;;;;;7.30;4.68;;;;;;;33.01;nan;-24726.59;4962512;28;20177;-78
2022/08/19 08:56:58;;;;;;;6.50;4.72;;;;;;;33.07;nan;-24728.22;4962156;29;20200;-79
2022/08/19 08:59:32;;;;;;;7.88;5.00;;;;;;;33.44;nan;-24738.09;4961792;28;20594;-78
2022/08/19 09:01:57;;;;;;;6.70;4.50;;;;;;;33.79;nan;-24747.44;4960597;29;20181;-79
2022/08/19 09:04:23;;;;;;;6.35;4.57;;;;;;;33.85;nan;-24749.06;4960333;29;20208;-79
2022/08/19 09:06:54;;;;;;;6.57;4.57;;;;;;;33.96;nan;-24751.91;4958062;29;20266;-78
2022/08/19 09:09:38;;;;;;;5.60;4.28;;;;;;;34.13;nan;-24756.63;4962128;28;20166;-78
2022/08/19 09:12:34;;;;;;;5.00;3.97;;;;;;;34.12;nan;-24756.22;4962276;28;20173;-80
2022/08/19 09:15:04;;;;;;;6.13;3.75;;;;;;;34.70;nan;-24771.78;4962725;29;20535;-78
2022/08/19 09:17:33;;;;;;;6.32;4.80;;;;;;;34.67;nan;-24770.84;4965207;28;20182;-78
2022/08/19 09:20:08;;;;;;;6.20;4.30;;;;;;;34.41;nan;-24763.94;4966881;28;20269;-79
2022/08/19 09:22:35;;;;;;;5.57;4.28;;;;;;;34.16;nan;-24757.31;4968294;28;20165;-78
2022/08/19 09:25:01;;;;;;;5.65;4.13;;;;;;;34.60;nan;-24769.06;4963802;29;20173;-80
2022/08/19 09:27:28;;;;;;;5.65;4.35;;;;;;;34.28;nan;-24760.44;4966160;28;20189;-79
2022/08/19 09:29:54;;;;;;;5.93;4.20;;;;;;;34.28;nan;-24760.44;4964689;29;20178;-79
2022/08/19 09:32:21;;;;;;;6.57;4.32;;;;;;;33.74;nan;-24746.09;4964846;28;20283;-79
2022/08/19 09:34:47;;;;;;;6.50;4.28;;;;;;;34.07;nan;-24755.00;4959000;28;20633;-78
2022/08/19 09:37:13;;;;;;;6.70;4.47;;;;;;;34.23;nan;-24759.06;4963169;28;20196;-79
2022/08/19 09:39:40;;;;;;;6.85;4.75;;;;;;;34.43;nan;-24764.63;4961010;28;20620;-79
2022/08/19 09:42:11;;;;;;;6.60;4.63;;;;;;;34.48;nan;-24765.97;4963666;28;20209;-80
2022/08/19 09:44:38;;;;;;;5.97;3.92;;;;;;;34.61;nan;-24769.34;4963008;28;20162;-77
2022/08/19 09:47:04;;;;;;;6.30;4.50;;;;;;;34.87;nan;-24776.38;4975980;28;20213;-76
2022/08/19 09:49:31;;;;;;;6.00;4.18;;;;;;;34.77;nan;-24773.66;4961036;29;20656;-77
2022/08/19 09:51:56;;;;;;;6.97;3.90;;;;;;;35.23;nan;-24785.81;4961823;28;20550;-78
2022/08/19 09:54:22;;;;;;;4.88;3.53;;;;;;;35.12;nan;-24782.97;4962240;28;20173;-78
2022/08/19 09:56:47;;;;;;;5.68;3.97;;;;;;;35.14;nan;-24783.38;4962398;28;20181;-79
2022/08/19 09:59:13;;;;;;;5.22;3.72;;;;;;;35.37;nan;-24789.72;4964427;28;20192;-79
2022/08/19 10:01:38;;;;;;;6.22;4.03;;;;;;;35.26;nan;-24786.63;4957596;29;20590;-78
2022/08/19 10:04:08;;;;;;;5.38;3.90;;;;;;;35.64;nan;-24796.75;4962154;28;20166;-78
2022/08/19 10:06:36;;;;;;;7.00;3.80;;;;;;;35.66;nan;-24797.41;4963125;28;20240;-78
2022/08/19 10:09:05;;;;;;;5.45;3.88;;;;;;;35.66;nan;-24797.41;4959713;29;20524;-78
2022/08/19 10:11:31;;;;;;;5.70;4.03;;;;;;;35.43;nan;-24791.34;4960078;29;20268;-78
2022/08/19 10:13:56;;;;;;;4.22;3.45;;;;;;;35.38;nan;-24790.00;4960286;28;20208;-78
2022/08/19 10:16:24;;;;;;;5.95;3.80;;;;;;;35.10;nan;-24782.31;4962634;28;20297;-78
2022/08/19 10:18:50;;;;;;;6.03;3.90;;;;;;;34.50;nan;-24766.38;4942800;29;20166;-79
2022/08/19 10:21:27;;;;;;;5.78;4.13;;;;;;;34.36;nan;-24762.59;4942549;29;20281;-76
2022/08/19 10:23:57;;;;;;;5.80;3.83;;;;;;;34.27;nan;-24760.16;4943476;29;20173;-78
2022/08/19 10:26:28;;;;;;;6.50;4.03;;;;;;;34.51;nan;-24766.78;4944196;29;20182;-78
2022/08/19 10:28:55;;;;;;;6.25;4.05;;;;;;;34.79;nan;-24774.06;4941886;29;20166;-79
2022/08/19 10:31:23;;;;;;;5.55;4.10;;;;;;;34.45;nan;-24765.16;4956419;29;20190;-77
2022/08/19 10:33:50;;;;;;;5.35;3.80;;;;;;;34.56;nan;-24768.00;4944312;29;20638;-79
2022/08/19 10:36:22;;;;;;;5.72;3.53;;;;;;;34.41;nan;-24763.94;4940719;29;20185;-80
2022/08/19 10:38:51;;;;;;;6.45;4.10;;;;;;;34.46;nan;-24765.28;4942322;29;20229;-79
2022/08/19 10:41:19;;;;;;;5.40;3.67;;;;;;;35.02;nan;-24780.41;4942187;29;20229;-78
2022/08/19 10:43:46;;;;;;;6.18;3.80;;;;;;;35.12;nan;-24782.97;4943243;29;20185;-78
2022/08/19 10:46:13;;;;;;;4.97;3.50;;;;;;;35.06;nan;-24781.22;4942471;29;20196;-78
2022/08/19 10:48:39;;;;;;;5.75;3.90;;;;;;;34.52;nan;-24766.91;4943244;29;20761;-78
2022/08/19 10:53:50;;;;;;;4.72;3.60;;;;;;;34.99;nan;-24779.59;4945052;29;20184;-79
2022/08/19 10:59:02;;;;;;;4.38;3.45;;;;;;;35.58;nan;-24795.13;4943644;29;20265;-79
2022/08/19 11:01:31;;;;;;;5.20;3.20;;;;;;;35.52;nan;-24793.50;4943059;29;20222;-78
2022/08/19 11:03:57;;;;;;;4.78;3.40;;;;;;;35.77;nan;-24800.38;4938903;29;20182;-80
2022/08/19 11:06:25;;;;;;;5.82;3.65;;;;;;;35.82;nan;-24801.72;4941682;29;20671;-79
2022/08/19 11:08:51;;;;;;;5.63;3.58;;;;;;;34.85;nan;-24775.81;4945239;29;20174;-79
2022/08/19 11:11:17;;;;;;;4.82;3.08;;;;;;;34.65;nan;-24770.41;4943885;29;20186;-80
2022/08/19 11:13:45;;;;;;;5.20;3.22;;;;;;;34.71;nan;-24772.06;4941148;29;20177;-79
2022/08/19 11:16:19;;;;;;;4.88;3.58;;;;;;;34.60;nan;-24769.22;4942909;29;20229;-79
2022/08/19 11:18:50;;;;;;;5.32;3.58;;;;;;;35.10;nan;-24782.31;4940213;29;20190;-79
2022/08/19 11:21:25;;;;;;;5.55;3.28;;;;;;;34.88;nan;-24776.50;4942520;29;20279;-79
2022/08/19 11:23:53;;;;;;;3.92;2.83;;;;;;;35.16;nan;-24784.06;4941825;29;20185;-79
2022/08/19 11:26:20;;;;;;;3.88;2.83;;;;;;;35.24;nan;-24786.22;4942343;29;20178;-79
2022/08/19 11:28:46;;;;;;;4.60;2.97;;;;;;;35.83;nan;-24802.00;4939642;29;20201;-79
2022/08/19 11:31:14;;;;;;;4.13;3.25;;;;;;;35.93;nan;-24804.56;4938840;29;20233;-80
2022/08/19 11:33:40;;;;;;;4.82;3.47;;;;;;;36.18;nan;-24811.28;4937384;29;20170;-79
2022/08/19 11:36:07;;;;;;;4.68;3.58;;;;;;;35.99;nan;-24806.03;4938487;29;20182;-80
2022/08/19 11:38:33;;;;;;;5.03;3.28;;;;;;;35.61;nan;-24796.06;4937757;29;20170;-79
2022/08/19 11:41:01;;;;;;;4.70;3.38;;;;;;;35.75;nan;-24799.69;4938305;29;20206;-80
2022/08/19 11:43:28;;;;;;;4.78;3.53;;;;;;;36.11;nan;-24809.41;4940491;29;20269;-79
2022/08/19 11:45:55;;;;;;;5.97;3.85;;;;;;;36.37;nan;-24816.28;4942012;29;20265;-79
2022/08/19 11:48:23;;;;;;;3.92;3.13;;;;;;;36.64;nan;-24823.53;4943225;29;20190;-78
2022/08/19 11:50:56;;;;;;;4.90;3.33;;;;;;;36.83;nan;-24828.38;4941145;29;20253;-78
2022/08/19 11:53:22;;;;;;;4.13;3.00;;;;;;;36.97;nan;-24832.28;4939532;29;20221;-79
2022/08/19 11:55:48;;;;;;;4.65;3.60;;;;;;;36.88;nan;-24829.72;4940654;29;20217;-80
2022/08/19 11:58:15;;;;;;;7.22;3.20;;;;;;;37.05;nan;-24834.28;4941712;29;20302;-79
2022/08/19 12:00:41;;;;;;;4.65;3.53;;;;;;;36.77;nan;-24826.75;4943803;29;20309;-80
2022/08/19 12:03:07;;;;;;;4.45;3.35;;;;;;;36.92;nan;-24830.78;4943697;29;20181;-79
2022/08/19 12:05:35;;;;;;;5.40;3.85;;;;;;;37.03;nan;-24833.88;4944673;29;20281;-79
2022/08/19 12:08:01;;;;;;;5.55;3.60;;;;;;;36.71;nan;-24825.28;4946340;29;20193;-80